Day Summary

19th May 2017

This table shows hourly data for the given day.

Time Temperature Rain Max Rain
Rate
Wind Pressure
Mean High Low Avg High Dom Mean High Low
GMT °C °C °C mm mm/hr mph mph Dir mb mb mb
09:00 11.8 12.0 11.6 0.0 0.0 0.2 5 1004.3 1004.4 1004.3
10:00 11.6 11.9 11.4 0.0 0.0 0.1 3 1004.8 1004.9 1004.7
11:00 11.7 11.9 11.4 0.0 0.0 0.0 3 1005.0 1005.2 1004.8
12:00 12.8 13.4 11.8 0.0 0.0 0.2 5 1005.3 1005.3 1005.2
13:00 13.6 13.8 13.3 0.0 0.0 0.8 5 1005.4 1005.6 1005.3
14:00 14.6 14.8 13.8 0.3 0.0 0.0 3 1005.6 1005.6 1005.5
15:00 14.8 15.1 14.4 0.0 0.0 0.3 4 1005.6 1005.7 1005.6
16:00 14.6 14.9 14.5 0.0 0.0 0.1 5 1005.7 1005.8 1005.7
17:00 14.4 14.6 14.3 0.0 0.0 0.0 2 1005.9 1005.9 1005.8
18:00 14.0 14.4 13.2 0.0 0.0 0.5 7 1006.2 1006.3 1006.1
19:00 12.4 13.2 11.8 0.0 0.0 0.0 3 1006.6 1006.8 1006.4
20:00 10.9 11.8 10.1 0.0 0.0 0.0 0 1007.1 1007.4 1006.9
21:00 9.7 10.1 9.6 0.0 0.0 0.0 0 1007.3 1007.4 1007.2
22:00 9.6 9.7 9.6 0.0 0.0 0.0 3 1007.3 1007.4 1007.2
23:00 9.4 9.7 9.2 0.0 0.0 0.0 2 1007.4 1007.4 1007.4
00:00 8.9 9.2 8.8 0.3 0.0 0.0 0 1007.4 1007.4 1007.4
01:00 8.7 8.8 8.7 0.0 0.0 0.0 2 1007.4 1007.4 1007.4
02:00 8.4 8.7 8.2 0.0 0.0 0.0 0 1007.5 1007.8 1007.4
03:00 8.0 8.2 7.9 0.0 0.0 0.0 0 1007.9 1007.9 1007.8
04:00 7.6 7.9 7.4 0.0 0.0 0.0 2 1008.3 1008.4 1008.1
05:00 8.1 8.6 7.5 0.0 0.0 0.0 3 1008.8 1009.0 1008.5
06:00 9.5 10.7 8.6 0.0 0.0 0.4 6 1009.4 1009.6 1009.1
07:00 11.6 12.2 10.7 0.0 0.0 0.7 8 1010.1 1010.4 1009.9
08:00 13.7 15.0 12.2 0.0 0.0 0.2 5 1010.5 1010.6 1010.5
  11.3 15.1 7.4 0.5   0.1 8   1006.9 1010.6 1004.3
13
°C
0.0
mm
88
%
Save up to $90 with Dreamhost